Time;durP1;ratioP1;P1;durP2;ratioP2;P2;SDS_P1;SDS_P2;PMS_P1;PMS_P2;Temp;Humidity;BMP_temperature;BMP_pressure;BME280_temperature;BME280_humidity;BME280_pressure;Samples;Min_cycle;Max_cycle;Signal;HPM_P1;HPM_P2
2022/04/01 00:01:05;;;;;;;;;;;8.40;29.70;;;6.56;34.13;100026.72;8292677;28;19926;-85
2022/04/01 00:05:27;;;;;;;;;;;8.40;29.50;;;6.41;34.40;100016.19;8267218;28;20036;-84
2022/04/01 00:09:48;;;;;;;;;;;8.30;29.10;;;6.30;34.58;100005.50;8246106;28;20000;-84
2022/04/01 00:14:10;;;;;;;;;;;8.30;29.50;;;6.40;34.24;100034.44;8259714;28;20016;-85
2022/04/01 00:18:32;;;;;;;;;;;8.10;29.70;;;6.35;34.28;100023.44;8256267;28;19921;-85
2022/04/01 00:22:54;;;;;;;;;;;8.20;29.80;;;6.25;34.72;100017.03;8277303;28;20263;-85
2022/04/01 00:27:16;;;;;;;;;;;8.10;29.90;;;6.18;34.27;100022.50;8274754;28;20317;-86
2022/04/01 00:31:38;;;;;;;;;;;7.90;29.60;;;6.18;34.37;100037.19;8274804;28;19922;-85
2022/04/01 00:35:59;;;;;;;;;;;7.90;29.70;;;5.95;34.77;100007.22;8279262;28;20397;-85
2022/04/01 00:40:22;;;;;;;;;;;7.90;29.70;;;5.97;34.44;100016.59;8275741;28;20008;-85
2022/04/01 00:44:43;;;;;;;;;;;7.90;30.00;;;6.02;34.91;100028.47;8264024;28;20012;-84
2022/04/01 00:49:06;;;;;;;;;;;7.80;29.90;;;5.90;34.81;100014.34;8256005;28;20301;-85
2022/04/01 00:53:30;;;;;;;;;;;7.70;30.10;;;5.72;34.94;99987.53;8248470;28;20356;-85
2022/04/01 00:57:52;;;;;;;;;;;7.70;30.00;;;5.88;34.54;100014.41;8263773;28;19928;-85
2022/04/01 01:02:14;;;;;;;;;;;7.70;30.20;;;5.72;35.05;99997.91;8276579;28;20020;-85
2022/04/01 01:06:38;;;;;;;;;;;7.60;30.40;;;5.62;34.58;100000.09;8255568;28;20362;-84
2022/04/01 01:11:01;;;;;;;;;;;7.60;30.30;;;5.77;34.65;100032.19;8278722;28;20017;-84
2022/04/01 01:15:26;;;;;;;;;;;7.60;30.40;;;5.53;34.68;100003.94;8282633;28;20000;-85
2022/04/01 01:19:47;;;;;;;;;;;7.50;30.60;;;5.47;34.87;99999.03;8263232;28;20024;-84
2022/04/01 01:24:17;;;;;;;;;;;7.50;30.40;;;5.46;34.82;99988.78;8280278;28;20004;-84
2022/04/01 01:28:39;;;;;;;;;;;7.40;30.50;;;5.55;34.69;100007.28;8261206;28;19924;-84
2022/04/01 01:33:01;;;;;;;;;;;7.50;30.50;;;5.53;34.79;100003.09;8269503;28;20451;-84
2022/04/01 01:37:25;;;;;;;;;;;7.40;30.40;;;5.36;34.91;99984.91;8267241;28;20011;-84
2022/04/01 01:41:47;;;;;;;;;;;7.30;30.40;;;5.42;35.07;99995.81;8258573;28;19928;-85
2022/04/01 01:46:10;;;;;;;;;;;7.30;30.60;;;5.40;34.73;100008.00;8261064;28;19924;-85
2022/04/01 01:55:12;;;;;;;;;;;7.20;30.40;;;5.24;34.99;99997.50;8272201;28;19921;-84
2022/04/01 01:59:34;;;;;;;;;;;7.10;30.80;;;5.22;34.98;100001.06;8267568;28;20000;-85
2022/04/01 02:03:56;;;;;;;;;;;7.00;30.70;;;5.28;35.17;100013.72;8259926;28;20016;-84
2022/04/01 02:08:18;;;;;;;;;;;7.10;30.50;;;5.18;34.99;100004.69;8266506;28;19924;-85
2022/04/01 02:12:42;;;;;;;;;;;7.00;30.60;;;5.10;35.21;100018.84;8284671;28;20458;-84
2022/04/01 02:17:04;;;;;;;;;;;7.00;30.70;;;5.01;35.22;100010.63;8295751;28;19927;-85
2022/04/01 02:21:27;;;;;;;;;;;6.90;30.80;;;4.98;34.83;100016.75;8277637;28;19928;-85
2022/04/01 02:25:51;;;;;;;;;;;6.90;31.00;;;5.04;34.70;100033.75;8265954;28;20631;-85
2022/04/01 02:30:13;;;;;;;;;;;6.90;30.90;;;4.89;35.15;100027.53;8295908;28;20004;-84
2022/04/01 02:34:53;;;;;;;;;;;6.90;31.00;;;4.69;35.31;99999.91;8295480;28;20016;-84
2022/04/01 02:39:15;;;;;;;;;;;6.80;31.20;;;4.83;35.16;100023.47;8261261;28;19921;-84
2022/04/01 02:43:37;;;;;;;;;;;6.80;31.10;;;4.87;35.19;100035.34;8265251;28;20004;-84
2022/04/01 02:47:59;;;;;;;;;;;6.70;30.90;;;4.78;34.75;100022.81;8279025;28;20267;-84
2022/04/01 02:52:31;;;;;;;;;;;6.70;30.90;;;4.71;35.31;100028.31;8283316;28;20020;-84
2022/04/01 02:56:53;;;;;;;;;;;6.60;30.80;;;4.53;35.41;100006.63;8247448;28;19925;-84
2022/04/01 03:01:15;;;;;;;;;;;6.50;30.90;;;4.58;35.56;100023.63;8296015;28;20434;-84
2022/04/01 03:05:38;;;;;;;;;;;6.60;31.10;;;4.40;35.21;99990.78;8246465;28;19925;-84
2022/04/01 03:10:02;;;;;;;;;;;6.50;31.20;;;4.65;35.19;100035.41;8277645;28;20008;-84
2022/04/01 03:14:27;;;;;;;;;;;7.00;31.40;;;4.58;35.17;100018.47;8263767;28;20028;-84
2022/04/01 03:19:19;;;;;;;;;;;6.50;31.50;;;4.57;35.32;100021.13;8270782;28;20012;-84
2022/04/01 03:23:43;;;;;;;;;;;6.50;31.30;;;4.42;35.51;100005.31;8251355;28;20012;-84
2022/04/01 03:28:08;;;;;;;;;;;6.40;31.30;;;4.54;35.59;100031.59;8259820;28;19927;-85
2022/04/01 03:32:30;;;;;;;;;;;6.50;31.30;;;4.49;35.16;100028.38;8281601;28;20015;-84
2022/04/01 03:36:54;;;;;;;;;;;6.50;31.30;;;4.58;34.98;100048.66;8248601;28;19921;-85
2022/04/01 03:41:17;;;;;;;;;;;6.40;31.50;;;4.36;35.47;100015.94;8268055;28;20012;-85
2022/04/01 03:45:43;;;;;;;;;;;6.40;31.60;;;4.57;35.04;100045.22;8273754;28;20023;-84
2022/04/01 03:50:12;;;;;;;;;;;6.60;31.50;;;4.47;35.51;100041.34;8290792;28;20005;-84
2022/04/01 03:54:34;;;;;;;;;;;6.40;31.40;;;4.29;35.39;100032.56;8257001;28;20012;-85
2022/04/01 03:59:08;;;;;;;;;;;6.30;31.70;;;4.22;35.26;100031.16;8263643;28;20341;-85
2022/04/01 04:03:50;;;;;;;;;;;6.30;31.30;;;4.20;35.33;100030.38;8259800;28;19924;-84
2022/04/01 04:08:17;;;;;;;;;;;6.10;31.40;;;4.29;35.45;100049.84;8253592;28;20011;-84
2022/04/01 04:12:40;;;;;;;;;;;6.20;31.50;;;4.15;35.23;100034.88;8267350;28;19925;-85
2022/04/01 04:17:08;;;;;;;;;;;6.10;31.40;;;4.14;35.44;100046.13;8276340;28;19928;-85
2022/04/01 04:21:36;;;;;;;;;;;6.10;31.50;;;4.10;35.41;100047.13;8274900;28;19922;-86
2022/04/01 04:26:12;;;;;;;;;;;6.00;31.40;;;3.96;35.41;100034.78;8243418;28;20005;-85
2022/04/01 04:30:38;;;;;;;;;;;6.00;31.60;;;4.08;35.30;100054.09;8277104;28;20466;-85
2022/04/01 04:35:20;;;;;;;;;;;6.00;31.70;;;3.87;35.44;100019.66;8282015;28;20106;-84
2022/04/01 04:39:43;;;;;;;;;;;5.90;31.60;;;4.06;35.53;100063.69;8249772;28;19943;-85
2022/04/01 04:44:05;;;;;;;;;;;5.90;31.70;;;4.01;35.54;100068.19;8261045;28;20020;-86
2022/04/01 04:48:27;;;;;;;;;;;5.90;31.70;;;4.01;35.30;100088.84;8263354;28;19922;-85
2022/04/01 04:52:53;;;;;;;;;;;5.80;31.60;;;3.85;35.44;100068.75;8254431;28;20442;-85
2022/04/01 04:57:15;;;;;;;;;;;5.80;31.80;;;3.94;35.57;100078.75;8277804;28;19932;-85
2022/04/01 05:01:48;;;;;;;;;;;5.90;31.90;;;3.85;35.78;100065.34;8268540;28;19921;-85
2022/04/01 05:06:14;;;;;;;;;;;5.90;32.00;;;3.88;35.38;100081.56;8274919;28;20039;-85
2022/04/01 05:11:28;;;;;;;;;;;5.80;32.00;;;3.82;35.82;100081.78;8286927;28;19988;-85
2022/04/01 05:15:58;;;;;;;;;;;5.80;32.00;;;3.64;35.69;100042.00;8283312;28;20008;-85
2022/04/01 05:20:28;;;;;;;;;;;5.70;32.00;;;3.48;35.50;100023.69;8261210;28;20016;-85
2022/04/01 05:24:52;;;;;;;;;;;5.80;32.10;;;3.81;35.88;100092.16;8256792;28;20427;-85
2022/04/01 05:29:25;;;;;;;;;;;5.60;32.00;;;3.71;35.67;100073.63;8271636;28;19923;-86
2022/04/01 05:34:00;;;;;;;;;;;5.80;32.10;;;3.77;35.54;100094.03;8268429;28;20016;-85
2022/04/01 05:38:22;;;;;;;;;;;5.60;32.10;;;3.90;35.61;100118.50;8257663;28;19925;-84
2022/04/01 05:42:46;;;;;;;;;;;5.80;32.30;;;3.92;36.08;100118.47;8265303;28;19917;-84
2022/04/01 05:47:30;;;;;;;;;;;5.80;32.30;;;3.89;35.51;100119.41;8275743;28;20020;-86
2022/04/01 05:51:53;;;;;;;;;;;5.80;32.30;;;3.74;35.71;100105.31;8253936;28;19917;-84
2022/04/01 05:56:15;;;;;;;;;;;5.80;32.30;;;3.91;35.92;100125.34;8283106;28;20000;-86
2022/04/01 06:00:50;;;;;;;;;;;5.80;32.40;;;3.71;35.48;100096.84;8271697;28;19927;-85
2022/04/01 06:05:27;;;;;;;;;;;5.80;32.40;;;3.82;35.92;100119.69;8262992;28;19921;-86
2022/04/01 06:10:05;;;;;;;;;;;5.80;32.40;;;3.91;35.95;100140.84;8265801;28;20289;-81
2022/04/01 06:15:11;;;;;;;;;;;5.80;32.60;;;3.83;35.90;100142.84;8272963;28;20438;-87
2022/04/01 06:19:56;;;;;;;;;;;5.80;32.60;;;3.66;35.97;100119.41;8294183;28;20395;-83
2022/04/01 06:24:31;;;;;;;;;;;5.70;32.80;;;3.78;35.99;100149.97;8279831;28;19944;-85
2022/04/01 06:29:24;;;;;;;;;;;5.70;32.90;;;3.77;36.04;100166.34;8253397;28;19924;-83
2022/04/01 06:34:08;;;;;;;;;;;5.70;33.10;;;3.71;36.21;100154.50;8287428;28;19929;-84
2022/04/01 06:39:01;;;;;;;;;;;5.70;33.30;;;3.59;36.31;100125.69;8291720;28;20409;-85
2022/04/01 06:43:23;;;;;;;;;;;5.60;33.20;;;3.79;36.06;100153.38;8257299;28;19924;-83
2022/04/01 06:48:04;;;;;;;;;;;5.60;33.40;;;3.65;36.12;100123.75;8289335;28;19924;-83
2022/04/01 06:52:36;;;;;;;;;;;5.60;33.40;;;3.72;36.35;100140.66;8262571;28;19921;-80
2022/04/01 06:57:17;;;;;;;;;;;5.60;33.40;;;3.77;36.26;100163.75;8291252;28;20405;-84
2022/04/01 07:02:04;;;;;;;;;;;5.70;33.60;;;3.77;36.09;100143.94;8269475;28;20450;-82
2022/04/01 07:06:26;;;;;;;;;;;5.70;33.40;;;3.90;36.39;100161.56;8289605;28;19921;-84
2022/04/01 07:10:48;;;;;;;;;;;5.70;33.30;;;3.76;36.67;100126.75;8278638;28;19921;-82
2022/04/01 07:15:13;;;;;;;;;;;6.10;33.60;;;3.88;36.62;100146.13;8274767;28;19924;-86
2022/04/01 07:19:34;;;;;;;;;;;5.90;33.50;;;3.88;36.34;100135.78;8278498;28;19929;-83
2022/04/01 07:23:58;;;;;;;;;;;5.90;33.60;;;3.92;36.55;100132.22;8283189;28;20451;-84
2022/04/01 07:28:20;;;;;;;;;;;5.90;33.60;;;4.01;36.54;100130.19;8273121;28;19924;-83
2022/04/01 07:32:42;;;;;;;;;;;6.00;33.60;;;4.06;36.25;100115.34;8256351;28;19917;-82
2022/04/01 07:37:08;;;;;;;;;;;6.00;33.30;;;4.37;36.35;100159.75;8267321;28;20290;-84
2022/04/01 07:41:34;;;;;;;;;;;6.10;33.40;;;4.37;36.61;100141.66;8258283;28;19924;-81
2022/04/01 07:45:57;;;;;;;;;;;6.30;33.20;;;4.34;36.56;100120.28;8280829;28;20361;-83
2022/04/01 07:50:20;;;;;;;;;;;6.40;33.20;;;4.65;36.56;100144.03;8280673;28;20012;-85
2022/04/01 07:54:42;;;;;;;;;;;6.20;33.10;;;4.90;36.55;100161.13;8256317;28;19921;-82
2022/04/01 07:59:04;;;;;;;;;;;6.60;33.00;;;4.86;36.51;100138.84;8251033;28;19921;-93
2022/04/01 08:03:26;;;;;;;;;;;7.00;33.10;;;4.91;36.52;100118.81;8269174;28;20012;-90
2022/04/01 08:07:48;;;;;;;;;;;7.00;32.90;;;5.27;36.29;100168.22;8263139;28;20008;-85
2022/04/01 08:12:10;;;;;;;;;;;7.10;32.50;;;5.17;36.22;100146.19;8217631;28;1696554;-87
2022/04/01 08:16:32;;;;;;;;;;;7.10;32.20;;;5.32;36.42;100142.13;8264078;28;19927;-89
2022/04/01 08:20:54;;;;;;;;;;;7.20;32.00;;;5.40;36.32;100152.13;8286353;28;19927;-87
2022/04/01 08:25:16;;;;;;;;;;;7.30;32.10;;;5.47;35.81;100153.56;8269730;28;19917;-84
2022/04/01 08:29:38;;;;;;;;;;;7.40;31.70;;;5.66;35.98;100176.91;8260418;28;20001;-82
2022/04/01 08:34:00;;;;;;;;;;;7.50;31.90;;;5.77;35.74;100172.09;8288498;28;20403;-87
2022/04/01 08:38:21;;;;;;;;;;;7.60;31.50;;;5.94;35.74;100194.69;8284506;28;19929;-83
2022/04/01 08:42:47;;;;;;;;;;;7.60;31.50;;;6.04;35.56;100195.97;8256395;28;19925;-83
2022/04/01 08:47:08;;;;;;;;;;;7.90;31.30;;;6.10;35.68;100187.06;8261133;28;19968;-84
2022/04/01 08:51:30;;;;;;;;;;;8.00;31.30;;;6.24;35.81;100189.03;8263503;28;19921;-82
2022/04/01 08:55:54;;;;;;;;;;;8.10;31.10;;;6.42;35.18;100194.19;8268574;28;19922;-83
2022/04/01 09:00:16;;;;;;;;;;;8.10;30.50;;;6.61;35.64;100201.13;8260411;28;19933;-83
2022/04/01 09:04:38;;;;;;;;;;;8.40;30.50;;;6.54;34.76;100189.38;8271452;28;19921;-84
2022/04/01 09:09:00;;;;;;;;;;;8.40;29.90;;;6.76;35.35;100215.97;8258722;28;19925;-81
2022/04/01 09:13:23;;;;;;;;;;;8.50;29.30;;;6.71;34.48;100202.38;8286568;28;20321;-81
2022/04/01 09:17:47;;;;;;;;;;;8.60;29.60;;;6.87;34.66;100215.47;8272028;28;19991;-82
2022/04/01 09:22:20;;;;;;;;;;;8.70;28.70;;;6.94;34.41;100218.59;8291875;28;19934;-82
2022/04/01 09:26:42;;;;;;;;;;;8.70;29.70;;;6.84;34.47;100203.47;8278245;28;19921;-83
2022/04/01 09:31:12;;;;;;;;;;;8.70;28.60;;;6.95;34.34;100205.56;8275947;28;19922;-82
2022/04/01 09:35:34;;;;;;;;;;;8.80;29.20;;;7.03;34.30;100198.22;8275848;28;19943;-83
2022/04/01 09:39:59;;;;;;;;;;;8.90;28.80;;;7.25;34.25;100223.13;8280151;28;19932;-83
2022/04/01 09:44:23;;;;;;;;;;;9.00;28.40;;;7.26;33.96;100217.88;8262693;28;19921;-82
2022/04/01 09:48:47;;;;;;;;;;;9.00;27.90;;;7.31;33.78;100222.81;8275157;28;19928;-82
2022/04/01 09:53:21;;;;;;;;;;;9.00;28.40;;;7.29;33.49;100217.72;8279693;28;19926;-83
2022/04/01 09:57:42;;;;;;;;;;;9.10;29.00;;;7.25;33.27;100203.19;8269642;28;20313;-83
2022/04/01 10:02:04;;;;;;;;;;;9.20;28.10;;;7.46;33.48;100209.06;8274687;28;19944;-82
2022/04/01 10:06:27;;;;;;;;;;;9.20;28.10;;;7.52;33.38;100229.53;8261964;28;19921;-82
2022/04/01 10:10:49;;;;;;;;;;;9.20;28.20;;;7.52;33.34;100195.75;8275527;28;19921;-81
2022/04/01 10:15:11;;;;;;;;;;;9.30;28.00;;;7.59;33.36;100203.25;8273030;28;19943;-82
2022/04/01 10:19:34;;;;;;;;;;;9.30;27.90;;;7.67;32.92;100201.09;8274513;28;19926;-81
2022/04/01 10:24:07;;;;;;;;;;;9.50;27.70;;;7.81;33.03;100216.81;8277054;28;19918;-81
2022/04/01 10:28:29;;;;;;;;;;;9.60;28.50;;;7.96;32.44;100213.41;8261874;28;19921;-80
2022/04/01 10:32:51;;;;;;;;;;;9.70;27.20;;;8.02;32.25;100190.59;8247818;28;19922;-80
2022/04/01 10:37:14;;;;;;;;;;;9.80;27.60;;;8.24;32.34;100206.75;8261900;28;19927;-81
2022/04/01 10:41:36;;;;;;;;;;;9.90;28.10;;;8.36;32.10;100213.06;8279175;28;19928;-80
2022/04/01 10:46:05;;;;;;;;;;;10.00;26.60;;;8.43;31.84;100209.25;8280198;28;19924;-81
2022/04/01 10:55:11;;;;;;;;;;;10.20;26.10;;;8.54;31.29;100193.03;8283668;28;20011;-81
2022/04/01 10:59:39;;;;;;;;;;;10.30;25.60;;;8.71;31.72;100224.16;8266822;28;19925;-81
2022/04/01 11:04:21;;;;;;;;;;;10.40;27.10;;;8.76;31.13;100200.47;8294534;28;20015;-81
2022/04/01 11:08:52;;;;;;;;;;;10.50;26.10;;;8.83;31.06;100220.88;8277503;28;19932;-83
2022/04/01 11:13:28;;;;;;;;;;;10.60;26.90;;;8.85;31.21;100200.78;8274394;28;20012;-81
2022/04/01 11:17:57;;;;;;;;;;;10.70;26.70;;;9.09;31.27;100218.56;8250076;28;19926;-82
2022/04/01 11:22:43;;;;;;;;;;;10.80;27.20;;;9.21;31.26;100219.63;8269911;28;19943;-81
2022/04/01 11:27:22;;;;;;;;;;;10.90;26.40;;;9.19;31.47;100198.88;8248329;28;20377;-80
2022/04/01 11:31:44;;;;;;;;;;;10.90;26.90;;;9.34;31.00;100212.75;8271446;28;19925;-82
2022/04/01 11:36:07;;;;;;;;;;;11.10;24.70;;;9.17;30.79;100174.66;8260521;28;20405;-83
2022/04/01 11:40:31;;;;;;;;;;;11.10;27.00;;;9.43;30.66;100195.75;8246197;28;20143;-84
2022/04/01 11:44:55;;;;;;;;;;;11.20;25.20;;;9.37;30.79;100173.50;8273362;28;19925;-83
2022/04/01 11:49:17;;;;;;;;;;;11.20;26.80;;;9.53;30.46;100189.06;8257374;28;19928;-84
2022/04/01 11:53:43;;;;;;;;;;;11.30;25.60;;;9.66;30.09;100200.44;8257525;28;19931;-83
2022/04/01 11:58:05;;;;;;;;;;;11.40;26.70;;;9.77;30.36;100212.81;8256202;28;19955;-79
2022/04/01 12:02:28;;;;;;;;;;;11.40;25.50;;;9.77;30.11;100193.75;8264391;28;19926;-83
2022/04/01 12:11:39;;;;;;;;;;;11.60;26.20;;;9.76;29.78;100182.47;8262118;28;19925;-81
2022/04/01 12:16:02;;;;;;;;;;;11.60;25.80;;;9.90;30.48;100174.63;8257061;28;19936;-81
2022/04/01 12:20:26;;;;;;;;;;;11.60;25.10;;;9.90;30.37;100177.25;8256616;28;19925;-81
2022/04/01 12:24:48;;;;;;;;;;;11.60;25.90;;;9.96;30.10;100183.84;8256781;28;19921;-81
2022/04/01 12:29:18;;;;;;;;;;;11.80;24.90;;;10.05;29.51;100190.31;8257873;28;19926;-82
2022/04/01 12:33:44;;;;;;;;;;;11.80;25.30;;;9.97;30.03;100177.72;8271967;28;19932;-82
2022/04/01 12:38:10;;;;;;;;;;;11.80;25.80;;;9.96;29.58;100184.72;8246108;28;20499;-81
2022/04/01 12:42:36;;;;;;;;;;;11.70;25.20;;;10.04;29.25;100171.19;8258816;28;19921;-82
2022/04/01 12:47:02;;;;;;;;;;;11.70;25.30;;;9.97;29.78;100159.47;8249852;28;20369;-82
2022/04/01 12:51:35;;;;;;;;;;;11.80;24.70;;;10.12;29.17;100165.50;8255826;28;20547;-81
2022/04/01 12:56:16;;;;;;;;;;;11.80;24.30;;;9.97;28.73;100168.13;8258834;28;19921;-81
2022/04/01 13:00:38;;;;;;;;;;;11.90;25.70;;;9.96;29.44;100199.50;8266431;28;19928;-81
2022/04/01 13:05:12;;;;;;;;;;;11.80;26.00;;;9.98;29.64;100187.22;8252549;28;19922;-80
2022/04/01 13:10:11;;;;;;;;;;;11.60;26.30;;;10.03;29.17;100195.59;8259197;28;19930;-81
2022/04/01 13:14:34;;;;;;;;;;;11.80;25.00;;;9.84;28.90;100155.94;8226695;28;19922;-81
2022/04/01 13:19:18;;;;;;;;;;;11.80;25.50;;;10.03;29.69;100186.94;8257482;28;19925;-81
2022/04/01 13:23:40;;;;;;;;;;;11.80;25.90;;;9.95;29.03;100177.81;8251914;28;19927;-80
2022/04/01 13:28:02;;;;;;;;;;;11.80;25.30;;;10.01;29.27;100180.97;8238432;28;20306;-82
2022/04/01 13:32:25;;;;;;;;;;;11.80;26.00;;;9.91;29.50;100175.47;8247625;28;19934;-82
2022/04/01 13:36:49;;;;;;;;;;;11.80;26.10;;;10.04;29.24;100201.66;8245400;28;19922;-81
2022/04/01 13:41:11;;;;;;;;;;;11.80;26.70;;;10.04;29.55;100186.00;8261278;28;19935;-81
2022/04/01 13:45:33;;;;;;;;;;;11.80;26.00;;;10.03;28.96;100172.13;8263175;28;19927;-82
2022/04/01 13:49:55;;;;;;;;;;;11.80;24.60;;;10.00;29.21;100190.56;8231811;28;19921;-84
2022/04/01 13:54:17;;;;;;;;;;;11.90;25.20;;;9.94;29.25;100175.31;8245743;28;19945;-83
2022/04/01 13:58:38;;;;;;;;;;;11.70;25.10;;;9.83;28.76;100152.50;8270872;28;19929;-83
2022/04/01 14:03:00;;;;;;;;;;;11.70;25.30;;;9.84;29.34;100153.34;8274857;28;19927;-83
2022/04/01 14:07:22;;;;;;;;;;;11.70;26.70;;;9.91;28.97;100141.56;8285587;28;19921;-83
2022/04/01 14:11:43;;;;;;;;;;;11.90;25.40;;;10.09;29.48;100160.47;8270747;28;20382;-82
2022/04/01 14:16:05;;;;;;;;;;;11.80;25.50;;;10.08;29.11;100146.59;8284486;28;20748;-82
2022/04/01 14:20:29;;;;;;;;;;;11.50;25.50;;;10.00;29.41;100133.19;8252598;28;19926;-80
2022/04/01 14:24:51;;;;;;;;;;;11.80;26.50;;;10.27;29.34;100164.56;8265128;28;19947;-80
2022/04/01 14:33:57;;;;;;;;;;;11.80;26.50;;;10.20;29.16;100150.19;8282826;28;20105;-81
2022/04/01 14:38:21;;;;;;;;;;;11.90;26.30;;;10.24;29.44;100151.69;8288263;28;19931;-80
2022/04/01 14:42:43;;;;;;;;;;;12.00;25.80;;;10.12;28.91;100145.44;8287475;28;20027;-80
2022/04/01 14:47:05;;;;;;;;;;;11.90;26.50;;;10.26;28.72;100182.88;8284156;28;20017;-81
2022/04/01 14:51:27;;;;;;;;;;;11.90;25.50;;;10.12;28.94;100161.09;8277086;28;19996;-80
2022/04/01 14:55:49;;;;;;;;;;;11.90;26.50;;;10.13;29.06;100173.25;8269702;28;20008;-81
2022/04/01 15:00:12;;;;;;;;;;;11.90;25.60;;;10.14;28.46;100187.13;8275518;28;19932;-80
2022/04/01 15:04:34;;;;;;;;;;;11.80;25.90;;;10.13;28.54;100182.84;8283692;28;20454;-80
2022/04/01 15:08:56;;;;;;;;;;;11.80;25.70;;;10.03;29.00;100163.47;8281714;28;20004;-81
2022/04/01 15:13:17;;;;;;;;;;;11.70;25.60;;;10.12;28.61;100188.97;8283389;28;19989;-80
2022/04/01 15:17:43;;;;;;;;;;;11.80;25.40;;;10.02;28.87;100167.00;8297628;28;20005;-81
2022/04/01 15:22:05;;;;;;;;;;;11.80;26.40;;;10.04;29.35;100181.63;8278909;28;20012;-80
2022/04/01 15:26:27;;;;;;;;;;;11.70;26.40;;;10.07;29.31;100189.28;8271743;28;20043;-80
2022/04/01 15:30:49;;;;;;;;;;;11.70;26.30;;;10.06;29.08;100190.19;8275442;28;19996;-80
2022/04/01 15:35:10;;;;;;;;;;;11.70;26.70;;;9.93;28.76;100171.00;8272753;28;19917;-80
2022/04/01 15:39:33;;;;;;;;;;;11.70;26.40;;;10.04;28.58;100192.06;8265633;28;19922;-80
2022/04/01 15:43:55;;;;;;;;;;;11.70;26.10;;;10.05;28.75;100193.75;8282676;28;20012;-80
2022/04/01 15:48:16;;;;;;;;;;;11.70;26.30;;;10.03;29.03;100203.44;8280035;28;19918;-80
2022/04/01 15:52:38;;;;;;;;;;;11.70;26.60;;;9.83;29.37;100168.16;8291253;28;19992;-80
2022/04/01 15:57:00;;;;;;;;;;;11.70;26.80;;;9.94;29.48;100194.41;8265659;28;19922;-81
2022/04/01 16:01:26;;;;;;;;;;;11.70;26.20;;;9.89;29.20;100190.41;8296698;28;19929;-80
2022/04/01 16:05:49;;;;;;;;;;;11.60;26.40;;;9.72;29.12;100163.59;8277926;28;20000;-81
2022/04/01 16:10:12;;;;;;;;;;;11.60;26.10;;;9.81;29.28;100193.47;8283501;28;19931;-80
2022/04/01 16:14:34;;;;;;;;;;;11.60;26.40;;;9.79;29.13;100199.72;8285070;28;20008;-80
2022/04/01 16:19:00;;;;;;;;;;;11.50;25.80;;;9.80;28.75;100212.63;8291761;28;19925;-80
2022/04/01 16:23:25;;;;;;;;;;;11.50;25.80;;;9.83;29.11;100222.91;8304051;28;20001;-80
2022/04/01 16:27:49;;;;;;;;;;;11.50;25.40;;;9.75;28.69;100222.53;8272476;28;19918;-81
2022/04/01 16:32:11;;;;;;;;;;;11.40;26.20;;;9.67;28.88;100220.38;8299639;28;19940;-80
2022/04/01 16:36:33;;;;;;;;;;;11.40;25.70;;;9.64;28.94;100222.31;8277310;28;20037;-81
2022/04/01 16:40:55;;;;;;;;;;;11.30;26.00;;;9.68;28.90;100231.63;8300731;28;20531;-81
2022/04/01 16:45:17;;;;;;;;;;;11.20;26.40;;;9.65;29.17;100240.47;8294716;28;20012;-80
2022/04/01 16:49:39;;;;;;;;;;;11.30;26.50;;;9.64;29.13;100249.25;8282893;28;20556;-81
2022/04/01 16:54:01;;;;;;;;;;;11.30;26.30;;;9.56;29.10;100233.22;8295689;28;20012;-80
2022/04/01 16:58:23;;;;;;;;;;;11.30;26.70;;;9.64;29.25;100262.28;8291009;28;19928;-81
2022/04/01 17:02:45;;;;;;;;;;;11.20;26.70;;;9.52;29.16;100252.56;8297649;28;19932;-81
2022/04/01 17:16:28;;;;;;;;;;;11.20;26.90;;;9.50;29.20;100285.69;8281814;28;20462;-81
2022/04/01 17:20:50;;;;;;;;;;;11.20;26.80;;;9.50;29.46;100290.88;8296823;28;19922;-81
2022/04/01 17:25:13;;;;;;;;;;;11.10;27.40;;;9.20;29.21;100257.00;8283659;28;19925;-81
2022/04/01 17:29:35;;;;;;;;;;;11.10;28.20;;;9.20;29.60;100288.28;8268365;28;19922;-80
2022/04/01 17:34:00;;;;;;;;;;;10.90;28.20;;;9.22;29.49;100304.66;8252325;28;19937;-83
2022/04/01 17:38:25;;;;;;;;;;;10.90;28.60;;;9.05;29.58;100303.00;8249752;28;19921;-82
2022/04/01 17:42:52;;;;;;;;;;;10.90;28.60;;;8.94;29.78;100292.31;8247570;28;20302;-81
2022/04/01 17:47:14;;;;;;;;;;;10.80;28.90;;;8.96;29.98;100324.34;8267657;28;19925;-81
2022/04/01 17:51:36;;;;;;;;;;;10.60;28.90;;;8.88;29.66;100329.97;8281256;28;19929;-81
2022/04/01 17:55:59;;;;;;;;;;;10.60;28.90;;;8.90;30.08;100350.72;8275067;28;19927;-81
2022/04/01 18:00:21;;;;;;;;;;;10.60;29.20;;;8.84;29.99;100354.50;8264957;28;19926;-81
2022/04/01 18:04:43;;;;;;;;;;;10.50;29.10;;;8.63;30.06;100344.31;8262784;28;19933;-82
2022/04/01 18:09:08;;;;;;;;;;;10.30;29.40;;;8.53;30.47;100352.69;8271127;28;19928;-81
2022/04/01 18:13:29;;;;;;;;;;;10.30;29.40;;;8.45;29.90;100366.09;8277167;28;19947;-81
2022/04/01 18:17:55;;;;;;;;;;;10.20;29.60;;;8.32;30.37;100376.28;8259804;28;19921;-82
2022/04/01 18:22:17;;;;;;;;;;;10.10;29.90;;;8.27;30.29;100393.88;8266918;28;20008;-82
2022/04/01 18:26:42;;;;;;;;;;;10.00;29.60;;;8.10;30.27;100383.47;8291773;28;19921;-81
2022/04/01 18:31:05;;;;;;;;;;;9.90;30.00;;;8.10;30.88;100417.28;8275130;28;19931;-81
2022/04/01 18:35:29;;;;;;;;;;;9.80;30.10;;;7.83;31.08;100394.34;8262262;28;19917;-80
2022/04/01 18:39:53;;;;;;;;;;;9.70;30.60;;;7.83;30.71;100417.75;8245728;28;20509;-81
2022/04/01 18:44:15;;;;;;;;;;;9.70;30.70;;;7.75;30.93;100427.69;8261427;28;19921;-82
2022/04/01 18:48:37;;;;;;;;;;;9.50;30.20;;;7.62;31.14;100418.78;8273925;28;19927;-83
2022/04/01 18:52:59;;;;;;;;;;;9.40;30.70;;;7.46;31.29;100419.50;8242850;28;19921;-81
2022/04/01 18:57:22;;;;;;;;;;;9.30;30.20;;;7.48;31.14;100448.00;8269191;28;20321;-81
2022/04/01 19:01:52;;;;;;;;;;;9.30;30.40;;;7.41;31.17;100450.06;8271341;28;19931;-81
2022/04/01 19:06:25;;;;;;;;;;;9.20;30.50;;;7.28;31.53;100451.53;8248944;28;20314;-81
2022/04/01 19:10:59;;;;;;;;;;;9.10;31.20;;;7.22;31.17;100455.25;8260950;28;19928;-80
2022/04/01 19:15:25;;;;;;;;;;;9.00;31.30;;;7.02;31.17;100450.09;8236263;28;20380;-81
2022/04/01 19:19:47;;;;;;;;;;;8.90;31.00;;;7.04;31.67;100474.25;8259005;28;19929;-81
2022/04/01 19:24:09;;;;;;;;;;;8.80;31.90;;;6.70;31.71;100447.19;8269170;28;19925;-81
2022/04/01 19:28:31;;;;;;;;;;;8.70;32.10;;;6.67;31.95;100480.19;8271347;28;19921;-82
2022/04/01 19:32:52;;;;;;;;;;;8.60;31.90;;;6.48;31.80;100474.94;8254717;28;20417;-81
2022/04/01 19:37:15;;;;;;;;;;;8.50;32.90;;;6.38;32.20;100479.69;8274490;28;20419;-81
2022/04/01 19:41:37;;;;;;;;;;;8.30;32.80;;;6.52;32.19;100521.47;8269910;28;19933;-81
2022/04/01 19:45:58;;;;;;;;;;;8.30;32.50;;;6.50;31.88;100531.06;8253265;28;19929;-82
2022/04/01 19:50:20;;;;;;;;;;;8.20;31.90;;;6.30;32.16;100505.13;8260156;28;19928;-82
2022/04/01 19:54:46;;;;;;;;;;;8.50;31.60;;;6.38;32.01;100516.00;8272638;28;20243;-81
2022/04/01 19:59:11;;;;;;;;;;;8.10;31.60;;;6.33;32.42;100530.91;8268630;28;19921;-82
2022/04/01 20:03:32;;;;;;;;;;;8.10;32.50;;;6.24;32.15;100526.94;8258559;28;19921;-82
2022/04/01 20:07:54;;;;;;;;;;;8.10;31.80;;;6.26;32.57;100535.47;8267221;28;19925;-80
2022/04/01 20:12:16;;;;;;;;;;;8.00;32.90;;;6.15;32.24;100543.69;8259336;28;19925;-81
2022/04/01 20:16:39;;;;;;;;;;;8.10;32.30;;;6.19;32.70;100557.41;8278727;28;19921;-81
2022/04/01 20:21:02;;;;;;;;;;;7.90;32.70;;;6.01;32.52;100543.41;8271046;28;19925;-80
2022/04/01 20:25:24;;;;;;;;;;;7.90;31.80;;;6.06;32.20;100549.25;8273394;28;19920;-80
2022/04/01 20:29:52;;;;;;;;;;;7.90;31.90;;;5.88;32.45;100542.16;8276564;28;19921;-80
2022/04/01 20:34:17;;;;;;;;;;;7.80;32.90;;;5.79;32.35;100548.53;8295841;28;19932;-81
2022/04/01 20:38:41;;;;;;;;;;;7.70;32.80;;;5.73;32.80;100544.44;8271949;28;19921;-81
2022/04/01 20:43:02;;;;;;;;;;;7.60;32.10;;;5.72;32.35;100557.44;8295551;28;19932;-80
2022/04/01 20:47:25;;;;;;;;;;;7.60;32.60;;;5.71;32.98;100566.97;8281659;28;19947;-81
2022/04/01 20:51:52;;;;;;;;;;;7.50;33.00;;;5.62;32.99;100571.66;8275107;28;19924;-83
2022/04/01 20:56:14;;;;;;;;;;;7.50;33.10;;;5.51;32.91;100575.50;8297764;28;19928;-83